createdAt,value
2018-01-15T00:01:31.139Z,82.43
2018-01-15T00:04:02.026Z,81.65
2018-01-15T00:06:32.780Z,81.74
2018-01-15T00:09:03.708Z,81.47
2018-01-15T00:11:34.482Z,81.45
2018-01-15T00:14:05.278Z,81.25
2018-01-15T00:16:36.134Z,80.32
2018-01-15T00:19:06.912Z,80.73
2018-01-15T00:21:37.788Z,80.07
2018-01-15T00:24:08.736Z,81.46
2018-01-15T00:26:39.587Z,81.34
2018-01-15T00:29:10.372Z,81.22
2018-01-15T00:31:41.265Z,82.21
2018-01-15T00:34:12.125Z,82.16
2018-01-15T00:36:42.892Z,82.40
2018-01-15T00:39:13.793Z,82.07
2018-01-15T00:41:44.606Z,81.57
2018-01-15T00:44:15.412Z,81.45
2018-01-15T00:46:46.198Z,81.60
2018-01-15T00:49:16.986Z,81.47
2018-01-15T00:51:47.812Z,82.23
2018-01-15T00:54:18.598Z,81.63
2018-01-15T00:56:51.460Z,81.07
2018-01-15T00:59:22.299Z,82.12
2018-01-15T01:01:53.116Z,81.58
2018-01-15T01:04:23.942Z,82.74
2018-01-15T01:06:54.713Z,80.60
2018-01-15T01:09:25.524Z,82.03
2018-01-15T01:11:56.288Z,82.97
2018-01-15T01:14:27.108Z,83.04
2018-01-15T01:16:57.876Z,82.27
2018-01-15T01:19:28.653Z,82.28
2018-01-15T01:21:59.412Z,82.78
2018-01-15T01:24:30.264Z,82.46
2018-01-15T01:27:01.012Z,83.50
2018-01-15T01:29:31.765Z,82.67
2018-01-15T01:32:02.505Z,83.68
2018-01-15T01:34:33.296Z,84.41
2018-01-15T01:37:04.064Z,84.80
2018-01-15T01:39:34.838Z,83.58
2018-01-15T01:42:05.629Z,83.56
2018-01-15T01:44:36.464Z,83.81
2018-01-15T01:47:07.265Z,82.51
2018-01-15T01:49:38.092Z,81.04
2018-01-15T01:52:08.868Z,82.38
2018-01-15T01:54:39.628Z,81.68
2018-01-15T01:57:10.487Z,81.85
2018-01-15T01:59:41.260Z,81.82
2018-01-15T02:02:11.994Z,83.05
2018-01-15T02:04:42.758Z,83.60
2018-01-15T02:07:13.506Z,85.23
2018-01-15T02:09:44.363Z,86.00
2018-01-15T02:12:15.191Z,87.74
2018-01-15T02:14:45.950Z,88.29
2018-01-15T02:17:16.701Z,89.22
2018-01-15T02:19:47.668Z,89.53
2018-01-15T02:22:18.527Z,90.19
2018-01-15T02:24:49.388Z,90.50
2018-01-15T02:27:20.165Z,90.24
2018-01-15T02:29:50.940Z,90.13
2018-01-15T02:32:21.717Z,90.46
2018-01-15T02:34:52.478Z,90.62
2018-01-15T02:37:23.223Z,90.99
2018-01-15T02:39:54.019Z,91.74
2018-01-15T02:42:24.765Z,91.95
2018-01-15T02:44:55.509Z,92.34
2018-01-15T02:47:26.340Z,92.12
2018-01-15T02:49:57.134Z,92.25
2018-01-15T02:52:27.904Z,92.42
2018-01-15T02:54:58.665Z,92.48
2018-01-15T02:57:29.428Z,92.60
2018-01-15T03:00:00.205Z,92.97
2018-01-15T03:02:30.976Z,92.97
2018-01-15T03:05:01.827Z,93.31
2018-01-15T03:07:32.610Z,93.48
2018-01-15T03:10:03.387Z,93.60
2018-01-15T03:12:34.196Z,93.44
2018-01-15T03:15:04.983Z,93.11
2018-01-15T03:17:35.749Z,93.10
2018-01-15T03:20:06.504Z,93.06
2018-01-15T03:22:37.283Z,93.04
2018-01-15T03:25:08.039Z,93.07
2018-01-15T03:27:38.796Z,93.52
2018-01-15T03:30:09.597Z,93.40
2018-01-15T03:32:40.356Z,93.49
2018-01-15T03:35:11.164Z,93.60
2018-01-15T03:37:41.900Z,93.58
2018-01-15T03:40:12.663Z,93.75
2018-01-15T03:42:43.404Z,93.37
2018-01-15T03:45:14.417Z,93.47
2018-01-15T03:47:45.196Z,93.37
2018-01-15T03:50:15.976Z,93.35
2018-01-15T03:52:46.772Z,93.34
2018-01-15T03:55:17.544Z,93.24
2018-01-15T03:57:48.284Z,93.17
2018-01-15T04:00:19.053Z,93.52
2018-01-15T04:02:49.837Z,93.17
2018-01-15T04:05:20.592Z,93.11
2018-01-15T04:07:51.404Z,93.06
2018-01-15T04:10:22.186Z,93.32
2018-01-15T04:12:52.948Z,93.13
2018-01-15T04:15:23.724Z,93.13
2018-01-15T04:17:54.473Z,93.20
2018-01-15T04:20:25.412Z,93.13
2018-01-15T04:22:56.218Z,93.16
2018-01-15T04:25:27.002Z,92.78
2018-01-15T04:27:57.817Z,92.78
2018-01-15T04:30:28.774Z,92.09
2018-01-15T04:32:59.541Z,91.91
2018-01-15T04:35:30.334Z,91.31
2018-01-15T04:38:01.073Z,91.79
2018-01-15T04:40:31.832Z,91.11
2018-01-15T04:43:02.600Z,90.87
2018-01-15T04:45:33.392Z,91.18
2018-01-15T04:48:04.162Z,91.02
2018-01-15T04:50:34.937Z,90.81
2018-01-15T04:53:05.763Z,91.01
2018-01-15T04:55:36.549Z,91.11
2018-01-15T04:58:07.284Z,91.34
2018-01-15T05:00:38.100Z,91.58
2018-01-15T05:03:08.861Z,91.72
2018-01-15T05:05:39.626Z,91.83
2018-01-15T05:08:10.372Z,91.87
2018-01-15T05:10:41.127Z,92.31
2018-01-15T05:13:23.803Z,91.99
2018-01-15T05:16:01.856Z,92.49
2018-01-15T05:18:32.672Z,92.91
2018-01-15T05:21:03.428Z,92.85
2018-01-15T05:23:34.164Z,92.89
2018-01-15T05:26:04.981Z,93.06
2018-01-15T05:28:35.745Z,93.26
2018-01-15T05:31:06.521Z,93.49
2018-01-15T05:33:37.282Z,93.78
2018-01-15T05:36:08.029Z,94.15
2018-01-15T05:38:38.756Z,94.21
2018-01-15T05:41:09.601Z,94.35
2018-01-15T05:43:40.343Z,94.35
2018-01-15T05:46:11.163Z,94.47
2018-01-15T05:48:41.943Z,94.22
2018-01-15T05:51:12.712Z,93.95
2018-01-15T05:53:43.447Z,93.83
2018-01-15T05:56:14.221Z,93.49
2018-01-15T05:58:44.963Z,93.46
2018-01-15T06:01:15.757Z,93.49
2018-01-15T06:03:46.508Z,93.52
2018-01-15T06:06:17.299Z,93.08
2018-01-15T06:08:48.052Z,93.06
2018-01-15T06:11:18.804Z,93.18
2018-01-15T06:13:49.541Z,93.06
2018-01-15T06:16:20.510Z,93.02
2018-01-15T06:18:51.324Z,92.97
2018-01-15T06:21:22.108Z,93.12
2018-01-15T06:23:52.945Z,93.18
2018-01-15T06:26:23.765Z,93.61
2018-01-15T06:28:54.520Z,93.57
2018-01-15T06:31:25.288Z,93.86
2018-01-15T06:33:56.034Z,93.86
2018-01-15T06:36:26.787Z,94.42
2018-01-15T06:38:57.537Z,94.31
2018-01-15T06:41:28.416Z,94.35
2018-01-15T06:43:59.165Z,94.27
2018-01-15T06:46:29.949Z,94.42
2018-01-15T06:49:00.808Z,94.28
2018-01-15T06:51:31.572Z,94.30
2018-01-15T06:54:02.570Z,94.41
2018-01-15T06:56:33.346Z,94.38
2018-01-15T06:59:04.088Z,94.44
2018-01-15T07:01:34.896Z,94.63
2018-01-15T07:04:05.655Z,94.64
2018-01-15T07:06:36.435Z,94.53
2018-01-15T07:09:07.179Z,94.59
2018-01-15T07:11:37.944Z,94.33
2018-01-15T07:14:08.677Z,94.12
2018-01-15T07:16:48.510Z,94.28
2018-01-15T07:19:19.255Z,94.26
2018-01-15T07:21:50.157Z,94.57
2018-01-15T07:24:20.986Z,94.47
2018-01-15T07:26:51.734Z,94.55
2018-01-15T07:29:22.573Z,94.58
2018-01-15T07:31:53.359Z,94.37
2018-01-15T07:34:24.171Z,94.14
2018-01-15T07:36:55.013Z,93.79
2018-01-15T07:39:25.879Z,93.93
2018-01-15T07:41:56.651Z,93.60
2018-01-15T07:44:27.435Z,93.17
2018-01-15T07:46:58.313Z,92.94
2018-01-15T07:49:29.091Z,92.95
2018-01-15T07:51:59.855Z,92.71
2018-01-15T07:54:30.648Z,92.19
2018-01-15T07:57:01.420Z,91.80
2018-01-15T07:59:32.157Z,91.94
2018-01-15T08:02:02.944Z,91.49
2018-01-15T08:04:33.858Z,91.41
2018-01-15T08:07:04.621Z,91.04
2018-01-15T08:09:35.416Z,90.78
2018-01-15T08:12:10.282Z,90.42
2018-01-15T08:14:41.065Z,91.00
2018-01-15T08:17:11.877Z,90.18
2018-01-15T08:19:42.698Z,90.21
2018-01-15T08:22:13.541Z,90.59
2018-01-15T08:24:44.445Z,90.57
2018-01-15T08:27:28.297Z,89.73
2018-01-15T08:29:59.081Z,89.85
2018-01-15T08:32:29.868Z,89.53
2018-01-15T08:35:00.764Z,90.19
2018-01-15T08:37:31.581Z,90.07
2018-01-15T08:40:02.443Z,89.86
2018-01-15T08:42:46.437Z,89.40
2018-01-15T08:45:17.217Z,89.40
2018-01-15T08:47:48.025Z,89.03
2018-01-15T08:50:18.865Z,88.83
2018-01-15T08:52:49.684Z,89.83
2018-01-15T08:55:20.459Z,89.41
2018-01-15T08:57:51.415Z,89.50
2018-01-15T09:00:23.074Z,88.63
2018-01-15T09:02:53.940Z,88.80
2018-01-15T09:05:24.737Z,88.72
2018-01-15T09:07:55.537Z,88.22
2018-01-15T09:10:26.284Z,88.86
2018-01-15T09:12:57.109Z,88.76
2018-01-15T09:15:27.912Z,88.53
2018-01-15T09:17:58.682Z,88.62
2018-01-15T09:20:29.433Z,88.01
2018-01-15T09:23:00.465Z,86.82
2018-01-15T09:25:31.223Z,87.09
2018-01-15T09:28:01.991Z,86.37
2018-01-15T09:30:32.813Z,86.41
2018-01-15T09:33:03.696Z,86.41
2018-01-15T09:35:34.435Z,86.43
2018-01-15T09:38:05.203Z,85.75
2018-01-15T09:40:35.971Z,85.92
2018-01-15T09:43:06.731Z,86.08
2018-01-15T09:45:37.563Z,85.87
2018-01-15T09:48:08.345Z,86.18
2018-01-15T09:50:39.121Z,85.65
2018-01-15T09:53:09.908Z,85.28
2018-01-15T09:55:40.678Z,85.38
2018-01-15T09:58:11.442Z,85.14
2018-01-15T10:00:42.204Z,86.32
2018-01-15T10:03:12.964Z,85.75
2018-01-15T10:05:43.742Z,85.44
2018-01-15T10:08:14.508Z,85.22
2018-01-15T10:10:45.267Z,85.00
2018-01-15T10:13:16.028Z,85.54
2018-01-15T10:15:46.796Z,85.02
2018-01-15T10:18:17.572Z,84.94
2018-01-15T10:20:48.441Z,85.38
2018-01-15T10:23:19.209Z,84.90
2018-01-15T10:25:50.004Z,85.45
2018-01-15T10:28:20.808Z,84.70
2018-01-15T10:30:51.521Z,84.44
2018-01-15T10:33:22.319Z,84.05
2018-01-15T10:35:53.168Z,83.18
2018-01-15T10:38:23.969Z,84.05
2018-01-15T10:40:54.705Z,83.10
2018-01-15T10:43:25.471Z,82.78
2018-01-15T10:45:56.263Z,82.77
2018-01-15T10:48:27.111Z,82.88
2018-01-15T10:50:57.880Z,82.43
2018-01-15T10:53:28.628Z,83.16
2018-01-15T10:55:59.401Z,84.34
2018-01-15T10:58:30.241Z,84.90
2018-01-15T11:01:07.247Z,83.84
2018-01-15T11:03:38.106Z,83.96
2018-01-15T11:06:08.932Z,84.76
2018-01-15T11:08:39.741Z,84.62
2018-01-15T11:11:10.631Z,84.03
2018-01-15T11:13:41.404Z,83.61
2018-01-15T11:16:12.207Z,83.52
2018-01-15T11:18:42.929Z,83.26
2018-01-15T11:21:13.656Z,82.59
2018-01-15T11:23:44.432Z,82.83
2018-01-15T11:26:15.322Z,84.03
2018-01-15T11:28:46.117Z,83.27
2018-01-15T11:31:16.859Z,83.31
2018-01-15T11:33:47.632Z,83.89
2018-01-15T11:36:18.360Z,84.70
2018-01-15T11:41:46.576Z,84.45
2018-01-15T11:44:17.315Z,84.35
2018-01-15T11:46:48.056Z,84.66
2018-01-15T11:49:18.799Z,83.30
2018-01-15T11:51:49.569Z,83.64
2018-01-15T11:54:20.340Z,82.89
2018-01-15T11:56:51.135Z,84.21
2018-01-15T11:59:21.993Z,85.03
2018-01-15T12:04:50.168Z,84.19
2018-01-15T12:07:20.928Z,84.27
2018-01-15T12:09:51.740Z,84.12
2018-01-15T12:12:22.496Z,83.66
2018-01-15T12:14:53.269Z,82.90
2018-01-15T12:17:24.032Z,82.76
2018-01-15T12:19:54.880Z,82.91
2018-01-15T12:22:25.696Z,82.94
2018-01-15T12:24:56.744Z,82.90
2018-01-15T12:27:27.495Z,83.24
2018-01-15T12:32:56.865Z,82.95
2018-01-15T12:35:27.640Z,83.25
2018-01-15T12:37:58.379Z,82.95
2018-01-15T12:40:29.125Z,84.31
2018-01-15T12:42:59.889Z,84.19
2018-01-15T12:45:30.644Z,84.94
2018-01-15T12:48:02.233Z,84.14
2018-01-15T12:50:33.252Z,82.87
2018-01-15T12:53:04.014Z,82.42
2018-01-15T12:55:34.853Z,82.60
2018-01-15T12:58:05.605Z,82.72
2018-01-15T13:00:36.356Z,82.36
2018-01-15T13:03:07.097Z,82.98
2018-01-15T13:05:49.142Z,82.75
2018-01-15T13:08:32.047Z,81.96
2018-01-15T13:11:02.901Z,82.26
2018-01-15T13:13:33.666Z,81.98
2018-01-15T13:16:04.438Z,81.72
2018-01-15T13:18:35.197Z,81.43
2018-01-15T13:24:03.512Z,81.64
2018-01-15T13:26:34.333Z,81.82
2018-01-15T13:29:05.075Z,82.51
2018-01-15T13:31:35.830Z,83.09
2018-01-15T13:34:06.559Z,82.75
2018-01-15T13:36:37.330Z,82.71
2018-01-15T13:39:08.066Z,82.61
2018-01-15T13:41:39.036Z,82.27
2018-01-15T13:44:09.804Z,81.38
2018-01-15T13:46:40.569Z,81.07
2018-01-15T13:49:11.335Z,81.34
2018-01-15T13:51:42.113Z,81.20
2018-01-15T13:54:12.860Z,81.43
2018-01-15T13:56:43.708Z,82.31
2018-01-15T13:59:14.495Z,82.44
2018-01-15T14:01:45.327Z,82.82
2018-01-15T14:04:16.077Z,82.59
2018-01-15T14:06:46.825Z,83.31
2018-01-15T14:09:17.593Z,82.99
2018-01-15T14:11:48.367Z,82.65
2018-01-15T14:14:19.155Z,82.29
2018-01-15T14:16:49.953Z,82.88
2018-01-15T14:19:20.708Z,83.35
2018-01-15T14:21:51.476Z,84.41
2018-01-15T14:24:22.248Z,84.42
2018-01-15T14:26:53.150Z,85.51
2018-01-15T14:29:23.909Z,86.46
2018-01-15T14:31:54.692Z,86.57
2018-01-15T14:34:25.457Z,86.58
2018-01-15T14:36:56.340Z,86.49
2018-01-15T14:39:27.089Z,86.59
2018-01-15T14:41:57.850Z,86.67
2018-01-15T14:44:28.632Z,87.13
2018-01-15T14:46:59.472Z,87.65
2018-01-15T14:49:30.232Z,87.83
2018-01-15T14:52:01.021Z,88.14
2018-01-15T14:54:31.768Z,88.28
2018-01-15T14:57:02.646Z,88.65
2018-01-15T14:59:33.408Z,88.57
2018-01-15T15:02:04.175Z,88.78
2018-01-15T15:04:34.920Z,88.86
2018-01-15T15:13:01.907Z,88.86
2018-01-15T15:15:32.657Z,88.75
2018-01-15T15:18:03.436Z,89.18
2018-01-15T15:20:34.167Z,89.02
2018-01-15T15:23:04.924Z,88.78
2018-01-15T15:25:35.684Z,89.11
2018-01-15T15:28:06.453Z,88.97
2018-01-15T15:30:37.219Z,89.13
2018-01-15T15:33:07.965Z,89.05
2018-01-15T15:35:38.745Z,89.31
2018-01-15T15:38:09.515Z,89.44
2018-01-15T15:40:40.266Z,89.42
2018-01-15T15:43:11.046Z,89.24
2018-01-15T15:45:41.787Z,89.16
2018-01-15T15:48:12.548Z,89.14
2018-01-15T15:50:43.305Z,89.09
2018-01-15T15:53:14.121Z,89.37
2018-01-15T15:55:45.001Z,88.73
2018-01-15T15:58:15.777Z,88.96
2018-01-15T16:00:46.528Z,88.55
2018-01-15T16:03:17.308Z,88.57
2018-01-15T16:05:48.041Z,88.54
2018-01-15T16:08:18.872Z,88.61
2018-01-15T16:10:49.632Z,88.98
2018-01-15T16:13:20.410Z,89.22
2018-01-15T16:15:51.149Z,89.24
2018-01-15T16:18:22.012Z,89.42
2018-01-15T16:20:52.755Z,89.44
2018-01-15T16:23:23.505Z,88.70
2018-01-15T16:25:54.233Z,89.11
2018-01-15T16:31:24.325Z,88.81
2018-01-15T16:33:55.116Z,88.88
2018-01-15T16:36:25.874Z,89.25
2018-01-15T16:38:56.727Z,88.93
2018-01-15T16:41:27.489Z,88.90
2018-01-15T16:43:58.252Z,89.13
2018-01-15T16:46:28.984Z,88.95
2018-01-15T16:48:59.747Z,89.22
2018-01-15T16:51:30.511Z,89.17
2018-01-15T16:54:01.372Z,88.66
2018-01-15T17:02:28.157Z,88.46
2018-01-15T17:04:58.968Z,88.52
2018-01-15T17:07:29.795Z,88.00
2018-01-15T17:10:00.583Z,88.26
2018-01-15T17:12:31.335Z,88.20
2018-01-15T17:18:00.278Z,88.17
2018-01-15T17:20:31.040Z,88.69
2018-01-15T17:23:01.808Z,88.29
2018-01-15T17:25:32.590Z,88.49
2018-01-15T17:28:03.349Z,88.07
2018-01-15T17:30:34.383Z,87.99
2018-01-15T17:33:05.167Z,88.15
2018-01-15T17:35:35.927Z,88.37
2018-01-15T17:38:06.708Z,88.31
2018-01-15T17:40:37.472Z,88.09
2018-01-15T17:43:08.220Z,87.86
2018-01-15T17:45:39.201Z,87.87
2018-01-15T17:48:09.951Z,88.11
2018-01-15T17:50:40.712Z,87.96
2018-01-15T17:53:11.468Z,88.19
2018-01-15T17:55:42.215Z,87.87
2018-01-15T17:58:12.985Z,87.77
2018-01-15T18:00:43.740Z,87.04
2018-01-15T18:03:14.492Z,87.21
2018-01-15T18:05:45.257Z,87.54
2018-01-15T18:08:15.996Z,87.64
2018-01-15T18:10:46.772Z,87.64
2018-01-15T18:13:17.521Z,87.54
2018-01-15T18:15:48.287Z,87.46
2018-01-15T18:18:19.036Z,87.16
2018-01-15T18:20:49.799Z,86.86
2018-01-15T18:23:20.540Z,87.84
2018-01-15T18:25:51.292Z,87.38
2018-01-15T18:28:22.046Z,87.36
2018-01-15T18:30:54.863Z,87.15
2018-01-15T18:33:25.608Z,86.99
2018-01-15T18:35:56.389Z,86.99
2018-01-15T18:38:27.140Z,86.65
2018-01-15T18:40:57.884Z,86.45
2018-01-15T18:43:28.619Z,86.59
2018-01-15T18:45:59.425Z,86.49
2018-01-15T18:48:30.177Z,86.07
2018-01-15T18:51:00.941Z,86.31
2018-01-15T18:53:31.679Z,86.32
2018-01-15T18:56:02.464Z,86.34
2018-01-15T18:58:33.220Z,86.31
2018-01-15T19:01:03.963Z,86.26
2018-01-15T19:03:34.699Z,86.65
2018-01-15T19:06:05.451Z,86.74
2018-01-15T19:08:36.179Z,86.25
2018-01-15T19:11:07.051Z,86.54
2018-01-15T19:13:37.806Z,86.42
2018-01-15T19:16:10.600Z,86.46
2018-01-15T19:18:41.370Z,86.42
2018-01-15T19:21:12.131Z,86.20
2018-01-15T19:23:42.868Z,86.14
2018-01-15T19:26:13.643Z,85.96
2018-01-15T19:28:44.419Z,85.74
2018-01-15T19:31:15.182Z,86.08
2018-01-15T19:33:45.942Z,86.50
2018-01-15T19:36:22.988Z,86.22
2018-01-15T19:38:55.613Z,86.17
2018-01-15T19:41:26.469Z,86.30
2018-01-15T19:44:04.293Z,86.09
2018-01-15T19:46:41.312Z,85.96
2018-01-15T19:49:18.145Z,85.78
2018-01-15T19:52:10.122Z,86.09
2018-01-15T19:54:48.107Z,85.94
2018-01-15T19:57:25.118Z,85.59
2018-01-15T20:00:02.200Z,85.79
2018-01-15T20:02:39.232Z,86.09
2018-01-15T20:05:16.210Z,86.05
2018-01-15T20:07:53.047Z,85.55
2018-01-15T20:10:30.098Z,85.59
2018-01-15T20:13:00.933Z,85.60
2018-01-15T20:15:31.807Z,85.41
2018-01-15T20:18:02.644Z,85.76
2018-01-15T20:20:33.388Z,85.93
2018-01-15T20:23:04.205Z,85.87
2018-01-15T20:25:35.035Z,85.55
2018-01-15T20:28:16.989Z,85.72
2018-01-15T20:30:47.997Z,85.99
2018-01-15T20:33:18.775Z,86.21
2018-01-15T20:35:49.566Z,85.85
2018-01-15T20:38:20.324Z,86.01
2018-01-15T20:40:51.139Z,85.95
2018-01-15T20:43:21.952Z,85.82
2018-01-15T20:45:52.709Z,85.82
2018-01-15T20:48:30.603Z,86.26
2018-01-15T20:51:01.406Z,86.00
2018-01-15T20:53:32.217Z,86.19
2018-01-15T20:56:03.008Z,85.75
2018-01-15T20:58:33.871Z,85.32
2018-01-15T21:01:04.660Z,85.67
2018-01-15T21:03:41.711Z,85.95
2018-01-15T21:06:12.518Z,85.41
2018-01-15T21:08:43.352Z,85.99
2018-01-15T21:11:14.084Z,86.27
2018-01-15T21:13:44.843Z,85.89
2018-01-15T21:16:15.654Z,85.35
2018-01-15T21:18:46.419Z,86.28
2018-01-15T21:21:17.242Z,85.76
2018-01-15T21:23:48.229Z,86.16
2018-01-15T21:26:18.993Z,85.44
2018-01-15T21:28:49.812Z,85.61
2018-01-15T21:31:20.576Z,85.93
2018-01-15T21:33:51.432Z,85.94
2018-01-15T21:36:22.245Z,86.47
2018-01-15T21:38:53.143Z,86.82
2018-01-15T21:41:23.877Z,87.07
2018-01-15T21:43:54.736Z,87.74
2018-01-15T21:46:25.585Z,88.03
2018-01-15T21:48:56.440Z,87.58
2018-01-15T21:51:27.298Z,88.39
2018-01-15T21:53:58.081Z,88.81
2018-01-15T21:56:28.851Z,88.88
2018-01-15T21:58:59.678Z,89.19
2018-01-15T22:01:30.499Z,89.26
2018-01-15T22:04:01.336Z,89.08
2018-01-15T22:06:32.177Z,89.39
2018-01-15T22:09:03.002Z,88.75
2018-01-15T22:11:33.895Z,89.55
2018-01-15T22:14:04.724Z,89.43
2018-01-15T22:16:35.488Z,89.56
2018-01-15T22:19:06.253Z,89.32
2018-01-15T22:21:37.085Z,90.38
2018-01-15T22:24:07.895Z,90.34
2018-01-15T22:26:38.720Z,90.84
2018-01-15T22:29:09.585Z,91.09
2018-01-15T22:31:40.472Z,91.05
2018-01-15T22:34:11.485Z,91.14
2018-01-15T22:36:42.252Z,91.36
2018-01-15T22:39:13.035Z,92.00
2018-01-15T22:41:43.868Z,92.15
2018-01-15T22:44:14.735Z,92.31
2018-01-15T22:46:45.484Z,92.45
2018-01-15T22:49:16.448Z,92.96
2018-01-15T22:51:47.281Z,92.81
2018-01-15T22:54:18.052Z,93.48
2018-01-15T22:56:48.800Z,93.13
2018-01-15T22:59:19.641Z,93.25
2018-01-15T23:01:50.408Z,93.31
2018-01-15T23:04:21.197Z,93.73
2018-01-15T23:06:52.004Z,93.69
2018-01-15T23:09:22.833Z,94.10
2018-01-15T23:11:53.639Z,94.40
2018-01-15T23:14:24.447Z,94.10
2018-01-15T23:16:55.256Z,93.98
2018-01-15T23:19:26.160Z,94.20
2018-01-15T23:21:56.896Z,94.36
2018-01-15T23:24:27.648Z,94.26
2018-01-15T23:26:58.559Z,94.93
2018-01-15T23:29:29.336Z,95.05
2018-01-15T23:32:00.082Z,95.06
2018-01-15T23:34:30.827Z,95.21
2018-01-15T23:37:01.605Z,95.02
2018-01-15T23:39:32.400Z,95.34
2018-01-15T23:42:03.172Z,95.33
2018-01-15T23:44:33.940Z,95.19
2018-01-15T23:47:04.728Z,95.36
2018-01-15T23:49:35.516Z,95.29
2018-01-15T23:52:06.251Z,95.35
2018-01-15T23:54:37.014Z,95.99
2018-01-15T23:57:07.753Z,96.39
2018-01-15T23:59:38.497Z,96.33
